Meteo Giornale » Osservazioni meteo Italia » Firenze-Peretola

ore: 06:50 - Osservazioni Meteo Firenze-Peretola
Lat. 43° 48' N Lon. 11° 12' E Alt. 40 metri s.l.m.

sereno Europe/Rome

22 °C

Sereno

Temp. 24 Ore

22 °C

36 °C

Nord

3.7 Km/h

Dew point 17 °C

Umidità 73 %

Visibilità  10 Km

Il sole sorge alle ore 05:58

Il sole tramonta alle ore 20:45

Data e Ora Cielo e Fenomeni T °C DP °C Um. % Pres. hPa Vis. km Vento km/h
Oggi h: 06:50 sereno Sereno 22 17 73 1015 10 N 3.7
Oggi h: 06:20 sereno Sereno 22 19 83 1015 10 N 3.7
Oggi h: 05:50 poco_nuvoloso Poco Nuvoloso 22 17 73 1015 10 SE 7.4
Oggi h: 05:20 poco_nuvoloso Poco Nuvoloso 22 18 78 1015 10 N 5.5
Oggi h: 04:50 nuvoloso Nuvoloso 23 17 68 1015 10 N 3.7
Oggi h: 04:20 sereno Sereno 23 17 68 1015 10 N 5.5
Oggi h: 03:50 poco_nuvoloso Poco Nuvoloso 22 18 78 1015 10 E/NE 7.4
Oggi h: 03:20 sereno Sereno 22 18 78 1015 10 N 5.5
Oggi h: 02:50 sereno Sereno 23 20 83 1015 10 N 3.7
Oggi h: 02:20 poco_nuvoloso Poco Nuvoloso 23 20 83 1015 10 N 1.8
Oggi h: 01:50 sereno Sereno 23 17 68 1015 10 N 1.8
Oggi h: 01:20 poco_nuvoloso Poco Nuvoloso 24 17 64 1016 10 N 3.7
Oggi h: 00:50 sereno Sereno 24 18 69 1015 10 N 3.7
Oggi h: 00:20 sereno Sereno 25 20 73 1015 10 N 3.7
Ieri h: 23:50 sereno Sereno 25 20 73 1015 10 N 3.7
Ieri h: 23:20 sereno Sereno 27 20 65 1015 10 N 1.8
Ieri h: 22:50 sereno Sereno 27 20 65 1015 10 N 5.5
Ieri h: 22:20 sereno Sereno 27 20 65 1015 10 SO 7.4
Ieri h: 21:50 sereno Sereno 28 20 61 1015 10 O/SO 7.4
Ieri h: 21:20 sereno Sereno 29 19 54 1015 10 O/SO 9.3
Ieri h: 20:50 sereno Sereno 30 12 33 1014 10 S/SO 9.3
Ieri h: 20:20 sereno Sereno 31 12 31 1014 10 S/SO 14.8
Ieri h: 19:50 sereno Sereno 32 14 33 1014 10 SO 18.5
Ieri h: 19:20 sereno Sereno 33 15 33 1014 10 O/SO 14.8
Ieri h: 18:50 sereno Sereno 34 17 36 1013 10 O/SO 14.8
Ieri h: 18:20 sereno Sereno 34 17 36 1013 10 SO 11.1
Ieri h: 17:50 sereno Sereno 35 14 28 1013 10 SO 16.7
Ieri h: 17:20 sereno Sereno 36 14 26 1013 10 O 25.9
Ieri h: 16:50 poco_nuvoloso Poco Nuvoloso 35 18 36 1014 10 O/SO 14.8
Ieri h: 16:20 nuvoloso Nuvoloso 33 19 43 1014 10 O/NO 13
Ieri h: 15:50 sereno Sereno 33 18 41 1014 10 O 7.4
Ieri h: 15:20 sereno Sereno 34 19 41 1014 10 NO 11.1
Ieri h: 14:50 poco_nuvoloso Poco Nuvoloso 33 18 41 1014 10 N 5.5
Ieri h: 14:20 poco_nuvoloso Poco Nuvoloso 32 18 43 1015 10 N 5.5
Ieri h: 13:50 nuvoloso Nuvoloso 31 18 45 1016 10 N 3.7
Ieri h: 13:20 nuvoloso Nuvoloso 31 17 43 1016 10 N 3.7
Ieri h: 12:50 nuvoloso Nuvoloso 31 17 43 1015 10 N 3.7
Ieri h: 12:20 nuvoloso Nuvoloso 30 16 42 1015 10 N 3.7
Ieri h: 11:50 molto_nuvoloso Molto Nuvoloso 30 16 42 1015 10 E 9.3
Ieri h: 11:20 nuvoloso Nuvoloso 29 15 42 1015 10 E 7.4
Ieri h: 10:50 poco_nuvoloso Poco Nuvoloso 29 15 42 1015 10 E 7.4
Ieri h: 10:20 nuvoloso Nuvoloso 28 15 45 1015 10 E 16.7
Ieri h: 09:50 nuvoloso Nuvoloso 28 15 45 1016 10 E 13
Ieri h: 09:20 nuvoloso Nuvoloso 27 15 47 1016 10 E/SE 11.1
Ieri h: 08:50 nuvoloso Nuvoloso 28 16 48 1016 10 N 5.5
Ieri h: 08:20 nuvoloso Nuvoloso 27 15 47 1015 10 E/SE 9.3
Ieri h: 07:50 nuvoloso Nuvoloso 26 17 57 1015 10 E 11.1